Time;durP1;ratioP1;P1;durP2;ratioP2;P2;SDS_P1;SDS_P2;PMS_P1;PMS_P2;Temp;Humidity;BMP_temperature;BMP_pressure;BME280_temperature;BME280_humidity;BME280_pressure;Samples;Min_cycle;Max_cycle;Signal;HPM_P1;HPM_P2
2021/01/21 00:00:02;;;;;;;115.43;76.97;;;2.00;99.90;;;;;;4964864;28;20420;-82
2021/01/21 00:02:29;;;;;;;118.60;76.80;;;2.10;99.90;;;;;;4956399;28;20782;-83
2021/01/21 00:04:55;;;;;;;111.25;73.97;;;2.10;99.90;;;;;;4971277;28;20404;-81
2021/01/21 00:07:20;;;;;;;111.75;74.05;;;2.10;99.90;;;;;;4962191;28;20402;-80
2021/01/21 00:09:46;;;;;;;120.57;79.57;;;2.10;99.90;;;;;;4953711;28;20410;-81
2021/01/21 00:12:12;;;;;;;117.60;77.82;;;2.20;99.90;;;;;;4956827;28;20414;-81
2021/01/21 00:14:39;;;;;;;127.25;83.15;;;2.20;99.90;;;;;;4960178;28;20437;-82
2021/01/21 00:17:05;;;;;;;117.43;77.70;;;2.10;99.90;;;;;;4953242;28;20413;-82
2021/01/21 00:19:31;;;;;;;115.32;75.70;;;2.00;99.90;;;;;;4967652;28;20412;-82
2021/01/21 00:21:57;;;;;;;120.63;79.05;;;2.00;99.90;;;;;;4967302;28;20440;-82
2021/01/21 00:24:23;;;;;;;122.45;81.80;;;2.10;99.90;;;;;;4964137;28;20400;-82
2021/01/21 00:26:49;;;;;;;119.63;80.90;;;2.10;99.90;;;;;;4972033;28;20400;-82
2021/01/21 00:29:14;;;;;;;108.57;73.05;;;2.10;99.90;;;;;;4968299;28;20412;-82
2021/01/21 00:31:41;;;;;;;119.68;78.18;;;2.10;99.90;;;;;;4961997;28;20407;-82
2021/01/21 00:34:07;;;;;;;135.25;86.97;;;2.20;99.90;;;;;;4969409;28;20404;-82
2021/01/21 00:36:33;;;;;;;132.63;86.80;;;2.00;99.90;;;;;;4961110;28;20498;-82
2021/01/21 00:38:59;;;;;;;127.50;84.50;;;1.90;99.90;;;;;;4959569;28;20417;-82
2021/01/21 00:41:25;;;;;;;120.88;80.00;;;1.90;99.90;;;;;;4958748;28;20398;-83
2021/01/21 00:43:51;;;;;;;114.43;75.27;;;2.00;99.90;;;;;;4955053;28;20484;-82
2021/01/21 00:46:17;;;;;;;118.50;79.05;;;2.00;99.90;;;;;;4962252;28;20896;-82
2021/01/21 00:48:45;;;;;;;111.45;73.95;;;2.10;99.90;;;;;;4954378;28;20409;-82
2021/01/21 00:51:11;;;;;;;115.75;75.60;;;2.10;99.90;;;;;;4954278;28;20442;-82
2021/01/21 00:53:37;;;;;;;112.67;74.77;;;2.10;99.90;;;;;;4964817;28;20406;-82
2021/01/21 00:56:03;;;;;;;110.00;73.82;;;2.20;99.90;;;;;;4973209;28;20414;-81
2021/01/21 00:58:29;;;;;;;108.97;73.57;;;2.30;99.90;;;;;;4965641;28;20412;-81
2021/01/21 01:00:55;;;;;;;122.35;79.70;;;2.40;99.90;;;;;;4962202;28;20417;-81
2021/01/21 01:03:21;;;;;;;134.07;87.47;;;2.40;99.90;;;;;;4966052;28;20426;-81
2021/01/21 01:05:48;;;;;;;132.33;85.27;;;2.30;99.90;;;;;;4984810;28;20392;-81
2021/01/21 01:08:14;;;;;;;142.45;90.90;;;2.10;99.90;;;;;;4977654;28;20432;-82
2021/01/21 01:10:39;;;;;;;125.38;82.50;;;1.90;99.90;;;;;;4976233;28;20918;-81
2021/01/21 01:13:06;;;;;;;131.23;85.67;;;1.80;99.90;;;;;;4977482;28;20902;-81
2021/01/21 01:15:33;;;;;;;143.38;92.32;;;1.90;99.90;;;;;;4977655;28;20393;-81
2021/01/21 01:17:59;;;;;;;137.88;87.47;;;1.70;99.90;;;;;;4986871;28;20792;-82
2021/01/21 01:20:25;;;;;;;127.78;83.68;;;1.60;99.90;;;;;;4963221;28;20521;-82
2021/01/21 01:22:53;;;;;;;119.53;78.82;;;1.70;99.90;;;;;;4987202;28;20445;-81
2021/01/21 01:25:20;;;;;;;115.50;76.25;;;1.80;99.90;;;;;;4974273;28;20452;-81
2021/01/21 01:27:46;;;;;;;120.00;79.07;;;1.80;99.90;;;;;;4963762;28;20413;-81
2021/01/21 01:30:13;;;;;;;122.75;79.22;;;1.90;99.90;;;;;;4977872;28;20489;-81
2021/01/21 01:32:39;;;;;;;116.03;76.37;;;1.90;99.90;;;;;;4981386;28;20415;-81
2021/01/21 01:35:06;;;;;;;120.47;77.95;;;1.90;99.90;;;;;;4977826;28;20494;-81
2021/01/21 01:37:32;;;;;;;119.25;76.68;;;1.90;99.90;;;;;;4981238;28;20389;-82
2021/01/21 01:39:59;;;;;;;113.70;75.38;;;2.00;99.90;;;;;;4987306;28;20471;-82
2021/01/21 01:42:25;;;;;;;118.50;77.00;;;2.00;99.90;;;;;;4971502;28;20412;-81
2021/01/21 01:44:51;;;;;;;131.48;84.05;;;1.90;99.90;;;;;;4964010;28;20407;-81
2021/01/21 01:47:18;;;;;;;115.20;77.68;;;1.90;99.90;;;;;;4977358;28;20460;-82
2021/01/21 01:49:45;;;;;;;130.53;84.80;;;1.80;99.90;;;;;;4974246;28;20491;-81
2021/01/21 01:52:11;;;;;;;132.10;84.72;;;1.80;99.90;;;;;;4975136;28;20381;-81
2021/01/21 01:54:40;;;;;;;136.23;85.97;;;1.70;99.90;;;;;;4957705;28;20427;-81
2021/01/21 01:57:07;;;;;;;137.48;89.35;;;1.70;99.90;;;;;;4972915;28;20736;-81
2021/01/21 01:59:34;;;;;;;125.50;79.57;;;1.60;99.90;;;;;;4977048;28;20402;-81
2021/01/21 02:02:00;;;;;;;122.65;78.78;;;1.60;99.90;;;;;;4978382;23;21585;-76
2021/01/21 02:04:26;;;;;;;118.77;77.20;;;1.70;99.90;;;;;;4993035;28;20465;-77
2021/01/21 02:06:52;;;;;;;120.32;78.15;;;1.80;99.90;;;;;;4991197;28;20402;-76
2021/01/21 02:09:19;;;;;;;115.38;77.20;;;1.90;99.90;;;;;;5001265;28;20453;-77
2021/01/21 02:11:53;;;;;;;118.90;78.03;;;1.90;99.90;;;;;;4995564;28;20406;-76
2021/01/21 02:14:27;;;;;;;112.47;74.13;;;1.90;99.90;;;;;;4988365;28;20410;-76
2021/01/21 02:16:58;;;;;;;107.87;72.53;;;2.00;99.90;;;;;;5006633;28;20436;-77
2021/01/21 02:20:08;;;;;;;116.15;77.45;;;2.00;99.90;;;;;;4991890;28;20453;-76
2021/01/21 02:23:34;;;;;;;104.60;69.43;;;1.90;99.90;;;;;;4995933;28;25157;-76
2021/01/21 02:26:07;;;;;;;115.65;76.80;;;2.00;99.90;;;;;;4998269;28;20442;-76
2021/01/21 02:29:02;;;;;;;105.65;69.82;;;2.00;99.90;;;;;;4986011;28;20409;-76
2021/01/21 02:31:42;;;;;;;106.95;72.50;;;1.90;99.90;;;;;;4980498;28;20446;-76
2021/01/21 02:34:15;;;;;;;122.82;79.60;;;1.90;99.90;;;;;;4991577;28;20782;-76
2021/01/21 02:36:44;;;;;;;107.40;71.13;;;1.90;99.90;;;;;;4993934;28;20405;-76
2021/01/21 02:39:11;;;;;;;115.28;76.20;;;1.90;99.90;;;;;;4990124;28;20915;-76
2021/01/21 02:41:37;;;;;;;117.63;76.82;;;1.90;99.90;;;;;;4986304;28;20416;-76
2021/01/21 02:44:03;;;;;;;118.43;76.83;;;1.80;99.90;;;;;;4997595;28;20447;-76
2021/01/21 02:46:30;;;;;;;111.27;72.93;;;1.90;99.90;;;;;;5006412;28;20456;-76
2021/01/21 02:48:56;;;;;;;107.47;71.75;;;2.00;99.90;;;;;;4990403;28;20404;-76
2021/01/21 02:51:27;;;;;;;112.55;74.78;;;1.90;99.90;;;;;;4975778;28;20407;-76
2021/01/21 02:54:01;;;;;;;107.88;71.20;;;2.00;99.90;;;;;;4974241;28;20420;-76
2021/01/21 02:56:31;;;;;;;103.72;67.97;;;2.00;99.90;;;;;;4999768;28;20430;-76
2021/01/21 02:59:02;;;;;;;105.10;69.45;;;2.00;99.90;;;;;;4996676;28;20929;-76
2021/01/21 03:01:30;;;;;;;107.72;72.60;;;1.90;99.90;;;;;;4986182;28;20964;-76
2021/01/21 03:03:57;;;;;;;112.43;74.85;;;2.00;99.90;;;;;;4992218;28;20430;-76
2021/01/21 03:06:24;;;;;;;108.75;71.80;;;1.90;99.90;;;;;;4977842;28;20479;-76
2021/01/21 03:08:51;;;;;;;106.20;71.20;;;1.90;99.90;;;;;;4972225;28;20404;-76
2021/01/21 03:11:17;;;;;;;112.22;75.93;;;1.90;99.90;;;;;;4971776;28;20399;-76
2021/01/21 03:13:43;;;;;;;118.35;77.55;;;1.90;99.90;;;;;;4971022;28;20408;-76
2021/01/21 03:16:09;;;;;;;127.72;82.50;;;1.80;99.90;;;;;;4972774;28;20451;-76
2021/01/21 03:18:35;;;;;;;117.47;76.35;;;1.60;99.90;;;;;;4973118;28;20393;-76
2021/01/21 03:21:01;;;;;;;118.10;76.72;;;1.50;99.90;;;;;;4971414;28;20411;-76
2021/01/21 03:23:27;;;;;;;124.50;81.25;;;1.50;99.90;;;;;;4973060;28;20416;-76
2021/01/21 03:25:53;;;;;;;144.80;91.70;;;1.50;99.90;;;;;;4967727;28;20461;-76
2021/01/21 03:28:19;;;;;;;137.70;89.15;;;1.50;99.90;;;;;;4978517;28;20434;-76
2021/01/21 03:30:46;;;;;;;127.67;79.27;;;1.50;99.90;;;;;;4971422;28;20404;-77
2021/01/21 03:33:12;;;;;;;135.90;85.40;;;1.50;99.90;;;;;;4988110;28;20429;-76
2021/01/21 03:35:38;;;;;;;142.05;88.57;;;1.60;99.90;;;;;;4987602;28;20400;-76
2021/01/21 03:38:04;;;;;;;132.27;84.57;;;1.60;99.90;;;;;;4981837;28;20922;-76
2021/01/21 03:40:30;;;;;;;121.05;77.63;;;1.60;99.90;;;;;;4988038;28;20776;-76
2021/01/21 03:42:56;;;;;;;122.80;81.18;;;1.60;99.90;;;;;;4971378;28;20442;-76
2021/01/21 03:45:22;;;;;;;128.00;83.23;;;1.70;99.90;;;;;;4972544;28;20475;-76
2021/01/21 03:47:48;;;;;;;135.32;86.35;;;1.70;99.90;;;;;;4987756;28;20408;-77
2021/01/21 03:50:14;;;;;;;124.18;77.90;;;1.70;99.90;;;;;;4971490;28;20499;-76
2021/01/21 03:52:40;;;;;;;119.20;76.93;;;1.70;99.90;;;;;;4972705;28;20729;-76
2021/01/21 03:55:07;;;;;;;136.45;86.10;;;1.80;99.90;;;;;;4965500;28;20438;-76
2021/01/21 03:57:33;;;;;;;127.75;81.32;;;1.80;99.90;;;;;;4968890;28;20408;-77
2021/01/21 03:59:59;;;;;;;117.93;76.47;;;1.80;99.90;;;;;;4971501;28;20396;-76
2021/01/21 04:02:25;;;;;;;136.85;88.30;;;1.90;99.90;;;;;;4971360;28;20450;-76
2021/01/21 04:04:51;;;;;;;149.55;93.95;;;1.90;99.90;;;;;;4960214;28;20502;-77
2021/01/21 04:07:17;;;;;;;147.53;93.43;;;1.80;99.90;;;;;;4976487;28;20463;-76
2021/01/21 04:09:43;;;;;;;154.65;95.72;;;1.70;99.90;;;;;;4964635;28;20481;-76
2021/01/21 04:12:09;;;;;;;154.55;94.85;;;1.60;99.90;;;;;;4978272;28;20405;-76
2021/01/21 04:14:36;;;;;;;133.63;83.88;;;1.60;99.90;;;;;;4972908;28;20425;-76
2021/01/21 04:17:02;;;;;;;143.27;90.10;;;1.70;99.90;;;;;;4964259;28;20455;-76
2021/01/21 04:19:27;;;;;;;134.18;86.25;;;1.70;99.90;;;;;;4977103;28;20907;-76
2021/01/21 04:21:53;;;;;;;128.88;81.53;;;1.80;99.90;;;;;;4972652;28;20416;-76
2021/01/21 04:24:19;;;;;;;124.97;79.83;;;1.80;99.90;;;;;;4972349;28;20566;-76
2021/01/21 04:26:45;;;;;;;145.77;92.15;;;1.90;99.90;;;;;;4961976;28;20398;-76
2021/01/21 04:29:11;;;;;;;141.65;88.32;;;1.90;99.90;;;;;;4986903;28;20507;-76
2021/01/21 04:31:38;;;;;;;131.70;82.68;;;1.80;99.90;;;;;;4991321;28;20463;-76
2021/01/21 04:34:04;;;;;;;126.88;81.40;;;1.90;99.90;;;;;;4976153;28;20424;-76
2021/01/21 04:36:30;;;;;;;123.25;79.50;;;1.90;99.90;;;;;;4975115;28;20408;-76
2021/01/21 04:38:55;;;;;;;129.10;82.22;;;2.00;99.90;;;;;;4991287;28;20412;-76
2021/01/21 04:41:21;;;;;;;120.32;79.10;;;2.00;99.90;;;;;;4974791;28;20400;-76
2021/01/21 04:43:47;;;;;;;117.63;76.10;;;2.10;99.90;;;;;;4991116;28;20423;-76
2021/01/21 04:46:13;;;;;;;121.07;78.18;;;2.10;99.90;;;;;;4975810;28;20463;-76
2021/01/21 04:48:40;;;;;;;119.95;79.28;;;2.10;99.90;;;;;;4974560;28;20408;-76
2021/01/21 04:51:07;;;;;;;126.53;80.78;;;2.10;99.90;;;;;;4991180;28;20409;-76
2021/01/21 04:53:37;;;;;;;126.50;80.75;;;2.00;99.90;;;;;;4962211;28;20488;-76
2021/01/21 04:56:06;;;;;;;123.78;78.82;;;2.00;99.90;;;;;;4990812;28;20496;-77
2021/01/21 04:58:37;;;;;;;121.30;78.68;;;1.90;99.90;;;;;;4974404;28;20413;-76
2021/01/21 05:01:03;;;;;;;118.25;76.78;;;2.00;99.90;;;;;;4969546;28;20388;-76
2021/01/21 05:03:29;;;;;;;135.50;84.97;;;2.00;99.90;;;;;;4989991;28;20424;-77
2021/01/21 05:05:56;;;;;;;120.88;76.38;;;2.00;99.90;;;;;;4973763;28;20396;-76
2021/01/21 05:08:22;;;;;;;123.38;79.07;;;1.90;99.90;;;;;;4978195;28;20408;-76
2021/01/21 05:10:49;;;;;;;115.97;76.55;;;2.00;99.90;;;;;;4974438;28;20404;-77
2021/01/21 05:13:15;;;;;;;136.47;86.70;;;2.00;99.90;;;;;;4973794;28;20405;-75
2021/01/21 05:15:41;;;;;;;128.63;82.05;;;1.90;99.90;;;;;;4972364;28;20405;-75
2021/01/21 05:18:07;;;;;;;123.65;78.47;;;1.80;99.90;;;;;;4975143;28;20485;-76
2021/01/21 05:20:35;;;;;;;141.10;87.80;;;1.80;99.90;;;;;;4960476;28;20409;-76
2021/01/21 05:23:03;;;;;;;160.70;97.22;;;1.70;99.90;;;;;;4974039;28;20527;-76
2021/01/21 05:25:30;;;;;;;141.68;87.78;;;1.60;99.90;;;;;;4974095;28;20393;-76
2021/01/21 05:27:57;;;;;;;140.23;88.35;;;1.50;99.90;;;;;;4980195;28;20961;-76
2021/01/21 05:30:27;;;;;;;150.13;93.00;;;1.70;99.90;;;;;;4972628;28;21061;-76
2021/01/21 05:32:53;;;;;;;156.93;95.43;;;1.70;99.90;;;;;;4961380;28;20413;-76
2021/01/21 05:35:20;;;;;;;162.57;96.35;;;1.60;99.90;;;;;;4963189;28;20433;-76
2021/01/21 05:37:54;;;;;;;164.05;98.32;;;1.60;99.90;;;;;;4972754;28;20939;-76
2021/01/21 05:40:22;;;;;;;167.40;100.32;;;1.60;99.90;;;;;;4990688;28;20437;-76
2021/01/21 05:42:51;;;;;;;146.55;90.65;;;1.60;99.90;;;;;;4977221;28;20946;-76
2021/01/21 05:45:18;;;;;;;164.90;99.28;;;1.50;99.90;;;;;;4981838;28;20909;-76
2021/01/21 05:47:52;;;;;;;162.07;99.35;;;1.60;99.90;;;;;;4969447;28;20486;-76
2021/01/21 05:50:18;;;;;;;142.82;90.82;;;1.50;99.90;;;;;;4973530;28;20982;-76
2021/01/21 05:52:44;;;;;;;134.32;85.22;;;1.60;99.90;;;;;;4974425;28;20388;-76
2021/01/21 05:55:11;;;;;;;134.63;85.25;;;1.70;99.90;;;;;;4973293;28;20405;-77
2021/01/21 05:57:38;;;;;;;132.95;84.82;;;1.80;99.90;;;;;;4970726;28;20406;-77
2021/01/21 06:00:05;;;;;;;131.65;85.25;;;1.90;99.90;;;;;;4972830;28;20440;-76
2021/01/21 06:02:32;;;;;;;135.57;86.22;;;2.00;99.90;;;;;;4969700;28;20412;-76
2021/01/21 06:05:00;;;;;;;143.38;92.05;;;2.00;99.90;;;;;;4969740;28;20395;-76
2021/01/21 06:07:29;;;;;;;164.45;97.45;;;1.90;99.90;;;;;;4972191;28;20416;-76
2021/01/21 06:09:58;;;;;;;156.43;97.73;;;1.70;99.90;;;;;;4971759;28;20424;-76
2021/01/21 06:12:26;;;;;;;136.52;85.72;;;1.60;99.90;;;;;;4983617;28;20439;-76
2021/01/21 06:14:54;;;;;;;137.73;86.78;;;1.60;99.90;;;;;;4970880;28;20430;-76
2021/01/21 06:17:20;;;;;;;128.70;83.20;;;1.60;99.90;;;;;;4963919;28;20483;-76
2021/01/21 06:19:46;;;;;;;138.43;86.75;;;1.70;99.90;;;;;;4963928;28;20417;-76
2021/01/21 06:22:15;;;;;;;156.00;96.88;;;1.80;99.90;;;;;;4972076;28;20417;-76
2021/01/21 06:24:43;;;;;;;163.55;102.40;;;1.70;99.90;;;;;;4967342;28;20406;-76
2021/01/21 06:27:10;;;;;;;181.10;107.25;;;1.60;99.90;;;;;;4972925;28;20474;-76
2021/01/21 06:29:38;;;;;;;162.52;99.40;;;1.50;99.90;;;;;;4972622;28;20412;-76
2021/01/21 06:32:08;;;;;;;155.95;93.13;;;1.50;99.90;;;;;;4967309;28;20439;-76
2021/01/21 06:34:38;;;;;;;166.60;101.27;;;1.60;99.90;;;;;;4972205;28;20424;-76
2021/01/21 06:37:10;;;;;;;166.63;101.80;;;1.50;99.90;;;;;;4973038;28;20467;-76
2021/01/21 06:39:47;;;;;;;161.88;98.93;;;1.60;99.90;;;;;;4967638;28;20412;-76
2021/01/21 06:42:17;;;;;;;166.50;100.88;;;1.50;99.90;;;;;;4971165;28;25117;-76
2021/01/21 06:44:43;;;;;;;163.63;101.53;;;1.50;99.90;;;;;;4973605;28;20714;-76
2021/01/21 06:47:10;;;;;;;167.50;100.38;;;1.50;99.90;;;;;;4968001;28;20412;-76
2021/01/21 06:49:37;;;;;;;154.88;93.97;;;1.60;99.90;;;;;;4961062;28;20812;-76
2021/01/21 06:52:05;;;;;;;148.98;93.93;;;1.60;99.90;;;;;;4973107;28;20431;-76
2021/01/21 06:54:31;;;;;;;130.93;83.00;;;1.60;99.90;;;;;;4972458;28;20447;-76
2021/01/21 06:56:57;;;;;;;129.33;82.67;;;1.70;99.90;;;;;;4972491;28;21448;-76
2021/01/21 06:59:50;;;;;;;130.80;82.35;;;1.80;99.90;;;;;;4973864;28;20392;-76
2021/01/21 07:02:39;;;;;;;127.13;84.00;;;1.90;99.90;;;;;;4972061;28;20455;-76
2021/01/21 07:05:09;;;;;;;124.90;81.88;;;2.00;99.90;;;;;;4990268;28;25091;-76
2021/01/21 07:07:57;;;;;;;130.05;84.35;;;2.00;99.90;;;;;;4977322;28;20928;-76
2021/01/21 07:10:23;;;;;;;121.10;78.97;;;2.00;99.90;;;;;;4983707;28;25071;-76
2021/01/21 07:12:49;;;;;;;116.45;75.78;;;2.10;99.90;;;;;;4966694;28;20402;-76
2021/01/21 07:15:15;;;;;;;119.80;78.68;;;2.10;99.90;;;;;;4970620;28;20396;-76
2021/01/21 07:17:42;;;;;;;116.82;78.25;;;;;;;;;;4972225;28;20498;-76
2021/01/21 07:20:09;;;;;;;113.85;75.95;;;2.10;99.90;;;;;;4972181;28;20495;-76
2021/01/21 07:22:42;;;;;;;112.63;74.80;;;2.30;99.90;;;;;;4971564;28;20504;-76
2021/01/21 07:25:12;;;;;;;127.30;80.90;;;2.20;99.90;;;;;;4984336;28;20393;-76
2021/01/21 07:27:41;;;;;;;122.28;80.10;;;2.10;99.90;;;;;;4972077;28;20408;-76
2021/01/21 07:30:17;;;;;;;113.35;77.50;;;2.10;99.90;;;;;;4972151;28;20426;-76
2021/01/21 07:32:45;;;;;;;128.85;83.68;;;2.00;99.90;;;;;;4971984;28;20397;-76
2021/01/21 07:35:39;;;;;;;118.60;78.60;;;2.10;99.90;;;;;;4971974;28;20978;-76
2021/01/21 07:38:06;;;;;;;121.85;79.45;;;2.00;99.90;;;;;;4926455;28;25098;-76
2021/01/21 07:40:43;;;;;;;118.97;79.85;;;2.00;99.90;;;;;;4972047;28;20756;-76
2021/01/21 07:43:10;;;;;;;124.50;83.72;;;2.00;99.90;;;;;;4971780;28;25100;-76
2021/01/21 07:45:36;;;;;;;117.00;78.33;;;2.10;99.90;;;;;;4972001;28;20473;-76
2021/01/21 07:48:22;;;;;;;121.22;79.97;;;2.10;99.90;;;;;;4989499;28;21005;-76
2021/01/21 07:50:48;;;;;;;113.22;77.57;;;2.10;99.90;;;;;;4991169;28;25085;-76
2021/01/21 07:53:22;;;;;;;117.80;77.30;;;2.10;99.90;;;;;;4986162;28;20396;-76
2021/01/21 07:55:50;;;;;;;123.53;80.43;;;2.10;99.90;;;;;;4971799;28;25140;-76
2021/01/21 07:58:21;;;;;;;123.55;81.75;;;2.10;99.90;;;;;;4971608;28;20424;-76
2021/01/21 08:00:48;;;;;;;117.30;77.50;;;2.10;99.90;;;;;;4984183;28;20386;-76
2021/01/21 08:03:14;;;;;;;119.60;77.82;;;2.10;99.90;;;;;;4972673;28;20905;-76
2021/01/21 08:05:42;;;;;;;111.32;73.13;;;2.10;99.90;;;;;;4965645;28;20430;-76
2021/01/21 08:08:08;;;;;;;109.78;73.63;;;;;;;;;;4975505;28;20809;-76
2021/01/21 08:10:35;;;;;;;118.83;77.43;;;;;;;;;;4975707;28;20407;-76
2021/01/21 08:13:02;;;;;;;120.32;80.57;;;;;;;;;;4975556;28;20404;-76
2021/01/21 08:15:29;;;;;;;121.38;80.45;;;;;;;;;;4975653;28;20895;-76
2021/01/21 08:17:55;;;;;;;113.97;77.07;;;;;;;;;;4975490;28;20404;-77
2021/01/21 08:20:23;;;;;;;116.55;76.80;;;;;;;;;;4976862;28;20408;-76
2021/01/21 08:22:58;;;;;;;120.80;79.25;;;;;;;;;;4975356;28;20908;-77
2021/01/21 08:25:25;;;;;;;118.15;77.38;;;;;;;;;;4975290;28;20400;-76
2021/01/21 08:27:51;;;;;;;124.63;80.70;;;;;;;;;;4978069;28;20463;-76
2021/01/21 08:30:18;;;;;;;117.10;77.32;;;;;;;;;;4975420;28;20770;-76
2021/01/21 08:32:45;;;;;;;116.65;76.88;;;;;;;;;;4976299;28;20448;-77
2021/01/21 08:35:13;;;;;;;143.45;89.75;;;;;;;;;;4975215;28;20938;-76
2021/01/21 08:37:40;;;;;;;119.85;77.57;;;;;;;;;;4976161;28;20431;-76
2021/01/21 08:40:08;;;;;;;119.18;78.28;;;;;;;;;;4975155;28;20412;-76
2021/01/21 08:42:34;;;;;;;129.88;84.47;;;;;;;;;;4976063;28;20495;-76
2021/01/21 08:45:00;;;;;;;131.75;86.18;;;;;;;;;;4974990;28;20400;-76
2021/01/21 08:47:38;;;;;;;150.60;94.35;;;;;;;;;;4975018;28;20423;-76
2021/01/21 08:50:05;;;;;;;148.48;92.45;;;;;;;;;;4974965;28;20848;-76
2021/01/21 08:52:31;;;;;;;134.13;85.37;;;;;;;;;;4974846;28;20397;-76
2021/01/21 08:54:57;;;;;;;122.20;79.57;;;;;;;;;;4974705;28;20401;-77
2021/01/21 08:57:25;;;;;;;127.75;80.97;;;;;;;;;;4974895;28;20463;-76
2021/01/21 08:59:51;;;;;;;120.40;78.80;;;;;;;;;;4975947;28;20411;-76
2021/01/21 09:02:32;;;;;;;116.93;76.20;;;;;;;;;;4974567;28;20424;-76
2021/01/21 09:05:04;;;;;;;125.30;81.00;;;;;;;;;;4973485;28;25103;-76
2021/01/21 09:07:30;;;;;;;128.57;83.63;;;;;;;;;;4974769;28;20394;-76
2021/01/21 09:09:56;;;;;;;129.18;84.28;;;2.00;99.90;;;;;;4974378;28;20404;-76
2021/01/21 09:12:23;;;;;;;133.07;86.25;;;2.20;99.90;;;;;;4974469;28;20404;-76
2021/01/21 09:15:00;;;;;;;135.65;87.95;;;;;;;;;;4973457;28;20404;-76
2021/01/21 09:17:27;;;;;;;130.27;85.30;;;;;;;;;;4966265;28;25106;-77
2021/01/21 09:19:53;;;;;;;124.00;81.57;;;;;;;;;;4970070;28;20756;-76
2021/01/21 09:22:22;;;;;;;125.68;82.82;;;;;;;;;;4974319;28;20424;-76
2021/01/21 09:24:59;;;;;;;124.73;81.23;;;;;;;;;;4974458;28;20413;-76
2021/01/21 09:27:26;;;;;;;127.10;83.28;;;;;;;;;;4973444;28;20416;-76
2021/01/21 09:29:54;;;;;;;128.67;80.50;;;;;;;;;;4974282;28;20438;-76
2021/01/21 09:32:22;;;;;;;134.60;87.00;;;;;;;;;;4975247;28;20915;-76
2021/01/21 09:34:51;;;;;;;147.00;94.22;;;;;;;;;;4974291;28;20397;-76
2021/01/21 09:37:18;;;;;;;149.15;93.50;;;;;;;;;;4974073;28;20757;-77
2021/01/21 09:39:44;;;;;;;149.75;93.85;;;;;;;;;;4974117;28;20427;-76
2021/01/21 09:42:10;;;;;;;152.90;97.45;;;;;;;;;;4974157;28;20432;-76
2021/01/21 09:44:37;;;;;;;131.75;85.07;;;;;;;;;;4973789;28;20915;-76
2021/01/21 09:47:03;;;;;;;136.85;90.50;;;;;;;;;;4975149;28;20421;-76
2021/01/21 09:49:30;;;;;;;139.52;88.78;;;;;;;;;;4973598;28;20412;-76
2021/01/21 09:51:56;;;;;;;125.22;83.10;;;;;;;;;;4973884;28;20447;-76
2021/01/21 09:54:22;;;;;;;140.37;89.50;;;;;;;;;;4974878;28;20752;-76
2021/01/21 09:56:48;;;;;;;121.78;81.35;;;;;;;;;;4973758;28;20440;-76
2021/01/21 09:59:14;;;;;;;124.78;82.47;;;;;;;;;;4975033;28;20404;-77
2021/01/21 10:01:41;;;;;;;123.30;83.32;;;;;;;;;;4973436;28;20869;-76
2021/01/21 10:04:07;;;;;;;131.45;88.43;;;;;;;;;;4973573;28;20419;-77
2021/01/21 10:06:33;;;;;;;142.77;93.38;;;;;;;;;;4973270;28;20408;-76
2021/01/21 10:09:00;;;;;;;141.65;93.07;;;;;;;;;;4973456;28;20408;-76
2021/01/21 10:11:26;;;;;;;131.50;85.38;;;;;;;;;;4973278;28;20412;-76
2021/01/21 10:13:52;;;;;;;128.53;85.90;;;;;;;;;;4975002;28;20808;-76
2021/01/21 10:16:19;;;;;;;142.60;92.60;;;;;;;;;;4973368;28;20467;-76
2021/01/21 10:18:46;;;;;;;140.27;93.60;;;;;;;;;;4959570;28;20455;-76
2021/01/21 10:21:12;;;;;;;136.82;91.22;;;;;;;;;;4973169;28;20812;-77
2021/01/21 10:23:38;;;;;;;155.90;99.05;;;;;;;;;;4973158;28;20416;-76
2021/01/21 10:26:04;;;;;;;147.85;93.55;;;;;;;;;;4969798;28;20413;-76
2021/01/21 10:28:30;;;;;;;136.23;89.22;;;;;;;;;;4977923;28;20406;-76
2021/01/21 10:30:56;;;;;;;128.60;85.27;;;;;;;;;;4970519;28;20928;-76
2021/01/21 10:33:22;;;;;;;126.60;87.85;;;;;;;;;;4973048;28;20405;-76
2021/01/21 10:35:49;;;;;;;122.75;83.25;;;;;;;;;;4972856;28;20417;-76
2021/01/21 10:38:16;;;;;;;122.55;83.70;;;;;;;;;;4972991;28;20495;-76
2021/01/21 10:40:42;;;;;;;121.70;82.37;;;;;;;;;;4972974;28;20435;-76
2021/01/21 10:43:08;;;;;;;126.65;83.55;;;;;;;;;;4973716;28;20420;-76
2021/01/21 10:45:34;;;;;;;125.82;84.18;;;;;;;;;;4972803;28;20408;-76
2021/01/21 10:48:00;;;;;;;127.78;85.72;;;;;;;;;;4973779;28;20400;-76
2021/01/21 10:50:26;;;;;;;120.95;82.57;;;;;;;;;;4972725;28;20404;-76
2021/01/21 10:52:54;;;;;;;130.93;86.60;;;;;;;;;;4973730;28;20898;-76
2021/01/21 10:55:20;;;;;;;120.35;81.13;;;;;;;;;;4973943;28;20466;-77
2021/01/21 10:57:46;;;;;;;116.63;77.03;;;;;;;;;;4972401;28;20900;-77
2021/01/21 11:00:13;;;;;;;113.47;78.63;;;;;;;;;;4972746;28;20804;-76
2021/01/21 11:02:39;;;;;;;114.07;78.38;;;;;;;;;;4972278;28;20483;-76
2021/01/21 11:05:07;;;;;;;110.85;75.65;;;;;;;;;;4972637;28;20412;-76
2021/01/21 11:07:33;;;;;;;112.07;78.03;;;;;;;;;;4972517;28;20996;-77
2021/01/21 11:10:00;;;;;;;113.50;76.93;;;;;;;;;;4972188;28;20409;-77
2021/01/21 11:12:26;;;;;;;114.57;79.47;;;;;;;;;;4972469;28;20888;-76
2021/01/21 11:14:53;;;;;;;124.32;83.10;;;;;;;;;;4972118;28;20906;-77
2021/01/21 11:17:20;;;;;;;125.18;82.60;;;;;;;;;;4972374;28;20892;-76
2021/01/21 11:19:46;;;;;;;119.43;82.47;;;;;;;;;;4972287;28;20455;-76
2021/01/21 11:22:13;;;;;;;133.18;90.35;;;;;;;;;;4971860;28;20438;-76
2021/01/21 11:24:39;;;;;;;124.82;84.85;;;;;;;;;;4973487;28;20460;-77
2021/01/21 11:27:06;;;;;;;110.35;75.78;;;;;;;;;;4968832;28;20406;-77
2021/01/21 11:29:32;;;;;;;110.45;75.60;;;;;;;;;;4972175;28;20756;-77
2021/01/21 11:31:59;;;;;;;105.25;74.00;;;;;;;;;;4963310;28;20869;-77
2021/01/21 11:34:25;;;;;;;113.43;75.28;;;;;;;;;;4970099;28;20440;-76
2021/01/21 11:36:51;;;;;;;129.03;83.03;;;;;;;;;;4971788;28;20415;-76
2021/01/21 11:39:17;;;;;;;127.18;83.38;;;;;;;;;;4971761;28;20935;-76
2021/01/21 11:41:44;;;;;;;129.15;82.60;;;;;;;;;;4965576;28;20448;-76
2021/01/21 11:44:11;;;;;;;141.65;90.88;;;;;;;;;;4965965;28;20428;-77
2021/01/21 11:46:37;;;;;;;131.57;83.97;;;;;;;;;;4970899;28;20479;-77
2021/01/21 11:49:03;;;;;;;127.75;85.22;;;2.20;99.90;;;;;;4960893;28;20410;-77
2021/01/21 11:51:29;;;;;;;114.35;77.88;;;2.90;99.90;;;;;;4971769;28;20396;-76
2021/01/21 11:53:55;;;;;;;113.72;75.85;;;3.00;99.90;;;;;;4971082;28;20400;-77
2021/01/21 11:56:21;;;;;;;115.90;77.18;;;2.90;99.90;;;;;;4965745;28;20412;-76
2021/01/21 11:58:47;;;;;;;119.82;81.20;;;3.00;99.90;;;;;;4970157;28;20829;-78
2021/01/21 12:01:13;;;;;;;123.55;81.10;;;3.00;99.90;;;;;;4971273;28;20798;-77
2021/01/21 12:03:39;;;;;;;113.28;77.28;;;2.90;99.90;;;;;;4970882;28;20431;-76
2021/01/21 12:06:05;;;;;;;143.03;93.37;;;3.00;99.90;;;;;;4967920;28;20455;-76
2021/01/21 12:08:31;;;;;;;128.15;82.47;;;3.00;99.90;;;;;;4970745;28;20425;-76
2021/01/21 12:10:57;;;;;;;120.47;80.28;;;3.10;99.90;;;;;;4963119;28;20414;-77
2021/01/21 12:13:23;;;;;;;106.32;72.70;;;3.20;99.90;;;;;;4970077;28;20459;-76
2021/01/21 12:15:49;;;;;;;116.35;78.38;;;3.30;99.90;;;;;;4986570;28;20416;-76
2021/01/21 12:18:16;;;;;;;124.00;83.03;;;3.30;99.90;;;;;;4970321;28;20404;-76
2021/01/21 12:20:42;;;;;;;137.27;88.10;;;3.30;99.90;;;;;;4970312;28;20398;-76
2021/01/21 12:23:08;;;;;;;134.27;89.32;;;3.30;99.90;;;;;;4971514;28;20428;-76
2021/01/21 12:25:34;;;;;;;141.63;91.32;;;3.20;99.90;;;;;;4971493;28;20396;-76
2021/01/21 12:28:00;;;;;;;138.70;89.00;;;3.20;99.90;;;;;;4966059;28;20404;-76
2021/01/21 12:30:26;;;;;;;171.10;103.82;;;3.20;99.90;;;;;;4986391;28;20424;-77
2021/01/21 12:32:52;;;;;;;368.00;181.10;;;3.30;99.90;;;;;;4966280;28;20396;-77
2021/01/21 12:35:19;;;;;;;189.98;107.68;;;3.40;99.90;;;;;;4967400;28;20415;-77
2021/01/21 12:37:45;;;;;;;115.35;76.30;;;3.40;99.90;;;;;;4969032;28;20416;-76
2021/01/21 12:40:11;;;;;;;104.20;68.90;;;3.50;99.90;;;;;;4965445;28;20557;-76
2021/01/21 12:42:37;;;;;;;104.05;72.13;;;3.60;99.90;;;;;;4967190;28;20433;-76
2021/01/21 12:45:05;;;;;;;114.90;77.82;;;3.70;99.90;;;;;;4965919;28;20409;-76
2021/01/21 12:47:31;;;;;;;112.13;72.32;;;3.80;99.90;;;;;;4964246;28;20456;-76
2021/01/21 12:49:57;;;;;;;105.20;71.28;;;3.80;99.90;;;;;;4965731;28;20422;-78
2021/01/21 12:52:24;;;;;;;105.97;70.33;;;;;;;;;;4968917;28;20403;-76
2021/01/21 12:54:50;;;;;;;103.20;70.57;;;;;;;;;;4969921;28;20908;-76